createdAt,value
2018-07-12T00:01:51.510Z,17.73
2018-07-12T00:04:18.793Z,17.10
2018-07-12T00:06:46.033Z,16.40
2018-07-12T00:09:13.327Z,16.70
2018-07-12T00:11:40.606Z,16.90
2018-07-12T00:14:07.853Z,16.80
2018-07-12T00:16:35.142Z,16.80
2018-07-12T00:19:02.452Z,17.87
2018-07-12T00:21:29.806Z,19.07
2018-07-12T00:23:57.080Z,17.13
2018-07-12T00:26:24.321Z,16.87
2018-07-12T00:28:52.023Z,18.10
2018-07-12T00:31:19.305Z,17.60
2018-07-12T00:33:46.839Z,18.00
2018-07-12T00:36:14.318Z,17.50
2018-07-12T00:38:41.585Z,16.57
2018-07-12T00:41:08.812Z,16.57
2018-07-12T00:43:36.066Z,18.50
2018-07-12T00:46:03.329Z,17.73
2018-07-12T00:48:30.564Z,18.40
2018-07-12T00:50:57.833Z,18.23
2018-07-12T00:53:25.090Z,20.60
2018-07-12T00:55:52.330Z,21.13
2018-07-12T00:58:19.568Z,23.20
2018-07-12T01:00:46.885Z,22.57
2018-07-12T01:03:14.154Z,21.50
2018-07-12T01:05:41.610Z,22.57
2018-07-12T01:08:08.882Z,22.73
2018-07-12T01:10:36.202Z,24.90
2018-07-12T01:13:03.440Z,25.37
2018-07-12T01:15:31.100Z,25.70
2018-07-12T01:17:58.341Z,27.03
2018-07-12T01:20:25.623Z,26.87
2018-07-12T01:22:52.893Z,25.67
2018-07-12T01:25:20.144Z,26.87
2018-07-12T01:27:47.405Z,27.33
2018-07-12T01:30:14.675Z,26.77
2018-07-12T01:32:41.954Z,25.80
2018-07-12T01:35:09.220Z,25.07
2018-07-12T01:37:36.479Z,28.67
2018-07-12T01:40:03.731Z,28.07
2018-07-12T01:42:30.986Z,26.00
2018-07-12T01:44:58.262Z,25.53
2018-07-12T01:47:25.509Z,26.07
2018-07-12T01:49:52.730Z,25.40
2018-07-12T01:52:20.019Z,23.73
2018-07-12T01:54:47.282Z,25.10
2018-07-12T01:57:14.516Z,23.70
2018-07-12T01:59:41.798Z,24.40
2018-07-12T02:02:09.082Z,25.13
2018-07-12T02:04:36.330Z,26.17
2018-07-12T02:07:03.612Z,26.47
2018-07-12T02:09:30.882Z,25.77
2018-07-12T02:11:58.129Z,25.90
2018-07-12T02:14:25.411Z,25.80
2018-07-12T02:16:52.748Z,27.50
2018-07-12T02:19:19.947Z,25.57
2018-07-12T02:21:47.194Z,27.57
2018-07-12T02:24:14.485Z,25.10
2018-07-12T02:26:41.739Z,30.70
2018-07-12T02:29:09.027Z,29.27
2018-07-12T02:31:36.249Z,30.00
2018-07-12T02:34:03.519Z,30.70
2018-07-12T02:36:30.804Z,29.97
2018-07-12T02:38:58.051Z,29.90
2018-07-12T02:41:25.292Z,34.83
2018-07-12T02:43:52.571Z,33.70
2018-07-12T02:46:19.808Z,33.03
2018-07-12T02:48:47.103Z,32.60
2018-07-12T02:51:14.373Z,35.17
2018-07-12T02:53:41.613Z,35.33
2018-07-12T02:56:08.857Z,37.40
2018-07-12T02:58:36.127Z,35.50
2018-07-12T03:01:03.358Z,35.43
2018-07-12T03:03:30.598Z,34.57
2018-07-12T03:05:57.878Z,36.23
2018-07-12T03:08:25.134Z,36.70
2018-07-12T03:10:52.367Z,38.30
2018-07-12T03:13:19.666Z,37.00
2018-07-12T03:15:46.923Z,38.87
2018-07-12T03:18:14.195Z,40.47
2018-07-12T03:20:41.463Z,38.10
2018-07-12T03:23:08.705Z,40.83
2018-07-12T03:25:35.965Z,39.23
2018-07-12T03:28:03.232Z,41.80
2018-07-12T03:30:30.505Z,42.40
2018-07-12T03:32:57.761Z,43.40
2018-07-12T03:35:25.021Z,42.23
2018-07-12T03:37:52.271Z,45.30
2018-07-12T03:40:19.559Z,43.07
2018-07-12T03:42:46.797Z,45.37
2018-07-12T03:45:14.047Z,42.97
2018-07-12T03:47:41.351Z,43.97
2018-07-12T03:50:08.619Z,44.13
2018-07-12T03:52:35.878Z,42.53
2018-07-12T03:55:03.134Z,44.60
2018-07-12T03:57:30.429Z,45.40
2018-07-12T03:59:57.691Z,43.17
2018-07-12T04:02:24.947Z,43.30
2018-07-12T04:04:52.224Z,42.63
2018-07-12T04:07:19.496Z,41.10
2018-07-12T04:09:46.974Z,41.40
2018-07-12T04:12:14.308Z,41.07
2018-07-12T04:14:41.558Z,39.43
2018-07-12T04:17:08.827Z,39.20
2018-07-12T04:19:36.094Z,36.20
2018-07-12T04:22:03.337Z,37.07
2018-07-12T04:24:31.626Z,37.47
2018-07-12T04:26:58.890Z,37.17
2018-07-12T04:29:26.119Z,38.03
2018-07-12T04:31:53.381Z,34.40
2018-07-12T04:34:20.662Z,37.97
2018-07-12T04:36:47.920Z,35.80
2018-07-12T04:39:15.186Z,35.03
2018-07-12T04:41:42.462Z,38.70
2018-07-12T04:44:09.722Z,38.07
2018-07-12T04:46:36.965Z,38.97
2018-07-12T04:49:04.235Z,34.60
2018-07-12T04:51:31.492Z,35.00
2018-07-12T04:53:58.821Z,33.53
2018-07-12T04:56:26.095Z,33.50
2018-07-12T04:58:54.657Z,32.70
2018-07-12T05:01:21.907Z,34.57
2018-07-12T05:03:49.182Z,32.53
2018-07-12T05:06:16.475Z,30.20
2018-07-12T05:08:46.400Z,29.67
2018-07-12T05:11:13.682Z,27.83
2018-07-12T05:13:40.949Z,29.90
2018-07-12T05:16:08.257Z,28.17
2018-07-12T05:18:35.548Z,25.47
2018-07-12T05:21:02.833Z,26.63
2018-07-12T05:23:30.074Z,25.20
2018-07-12T05:25:57.324Z,26.40
2018-07-12T05:28:24.862Z,27.80
2018-07-12T05:30:52.196Z,26.20
2018-07-12T05:33:19.427Z,23.83
2018-07-12T05:35:47.794Z,22.77
2018-07-12T05:38:16.173Z,23.20
2018-07-12T05:40:44.214Z,22.63
2018-07-12T05:43:12.634Z,22.93
2018-07-12T05:45:41.028Z,22.87
2018-07-12T05:48:09.658Z,23.07
2018-07-12T05:50:38.025Z,22.73
2018-07-12T05:53:06.456Z,22.20
2018-07-12T05:55:34.798Z,20.20
2018-07-12T05:58:03.163Z,19.63
2018-07-12T06:00:31.528Z,18.60
2018-07-12T06:02:59.952Z,17.80
2018-07-12T06:05:28.300Z,19.20
2018-07-12T06:07:56.632Z,18.20
2018-07-12T06:10:25.052Z,19.47
2018-07-12T06:12:53.521Z,19.30
2018-07-12T06:15:21.874Z,20.13
2018-07-12T06:17:50.261Z,19.00
2018-07-12T06:20:18.676Z,20.07
2018-07-12T06:22:47.062Z,21.67
2018-07-12T06:25:15.479Z,21.33
2018-07-12T06:27:43.885Z,19.40
2018-07-12T06:30:12.354Z,20.13
2018-07-12T06:32:40.708Z,18.70
2018-07-12T06:35:09.044Z,18.37
2018-07-12T06:37:37.401Z,15.77
2018-07-12T06:40:05.819Z,16.23
2018-07-12T06:42:34.221Z,16.40
2018-07-12T06:45:02.559Z,15.97
2018-07-12T06:47:30.933Z,16.17
2018-07-12T06:49:59.268Z,15.83
2018-07-12T06:52:27.679Z,14.87
2018-07-12T06:54:56.026Z,15.00
2018-07-12T06:57:24.408Z,14.50
2018-07-12T06:59:52.742Z,14.97
2018-07-12T07:02:21.158Z,14.80
2018-07-12T07:04:49.521Z,17.93
2018-07-12T07:07:18.154Z,18.10
2018-07-12T07:09:46.502Z,16.90
2018-07-12T07:12:14.955Z,17.33
2018-07-12T07:14:43.417Z,19.20
2018-07-12T07:17:11.792Z,18.27
2018-07-12T07:19:40.155Z,18.17
2018-07-12T07:22:08.517Z,24.33
2018-07-12T07:24:36.893Z,18.73
2018-07-12T07:27:05.504Z,19.27
2018-07-12T07:29:33.832Z,19.00
2018-07-12T07:32:03.738Z,18.57
2018-07-12T07:34:32.138Z,18.30
2018-07-12T07:37:00.537Z,18.77
2018-07-12T07:39:28.897Z,18.80
2018-07-12T07:41:57.402Z,18.90
2018-07-12T07:44:25.778Z,18.67
2018-07-12T07:46:54.107Z,18.60
2018-07-12T07:49:22.171Z,18.97
2018-07-12T07:51:50.521Z,18.83
2018-07-12T07:54:18.867Z,19.27
2018-07-12T07:56:47.220Z,18.70
2018-07-12T07:59:15.586Z,19.10
2018-07-12T08:01:43.960Z,19.10
2018-07-12T08:04:12.343Z,17.97
2018-07-12T08:06:40.675Z,17.73
2018-07-12T08:09:09.135Z,18.43
2018-07-12T08:11:37.556Z,20.33
2018-07-12T08:14:05.943Z,19.10
2018-07-12T08:16:34.337Z,20.00
2018-07-12T08:19:02.715Z,21.40
2018-07-12T08:21:31.113Z,20.60
2018-07-12T08:24:00.363Z,22.37
2018-07-12T08:26:28.702Z,20.93
2018-07-12T08:28:57.082Z,21.00
2018-07-12T08:31:25.452Z,20.23
2018-07-12T08:33:53.822Z,19.67
2018-07-12T08:36:21.952Z,21.07
2018-07-12T08:38:50.253Z,21.20
2018-07-12T08:41:18.606Z,21.67
2018-07-12T08:43:46.998Z,19.00
2018-07-12T08:46:15.528Z,21.33
2018-07-12T08:48:44.037Z,20.00
2018-07-12T08:51:12.521Z,20.87
2018-07-12T08:53:40.912Z,20.13
2018-07-12T08:56:09.265Z,19.17
2018-07-12T08:58:37.631Z,18.33
2018-07-12T09:01:06.211Z,17.77
2018-07-12T09:03:34.533Z,18.87
2018-07-12T09:06:02.890Z,20.23
2018-07-12T09:08:31.293Z,17.33
2018-07-12T09:10:59.640Z,17.20
2018-07-12T09:13:28.036Z,18.17
2018-07-12T09:15:56.426Z,17.60
2018-07-12T09:18:24.799Z,17.30
2018-07-12T09:20:53.207Z,19.40
2018-07-12T09:23:21.533Z,19.70
2018-07-12T09:25:49.862Z,21.90
2018-07-12T09:28:17.964Z,21.17
2018-07-12T09:30:46.318Z,21.97
2018-07-12T09:33:14.700Z,22.53
2018-07-12T09:35:43.074Z,22.30
2018-07-12T09:38:46.795Z,21.60
2018-07-12T09:41:15.219Z,21.10
2018-07-12T09:43:44.403Z,20.67
2018-07-12T09:46:12.834Z,20.87
2018-07-12T09:48:42.399Z,21.23
2018-07-12T09:51:11.731Z,23.63
2018-07-12T09:53:41.212Z,23.17
2018-07-12T09:56:09.636Z,20.47
2018-07-12T09:58:37.946Z,20.77
2018-07-12T10:01:11.602Z,20.00
2018-07-12T10:03:53.429Z,20.20
2018-07-12T10:06:30.763Z,19.83
2018-07-12T10:09:04.204Z,21.00
2018-07-12T10:12:10.662Z,20.13
2018-07-12T10:14:44.422Z,21.20
2018-07-12T10:17:17.022Z,20.53
2018-07-12T10:19:45.385Z,18.00
2018-07-12T10:22:13.795Z,18.07
2018-07-12T10:24:42.222Z,20.83
2018-07-12T10:27:10.566Z,18.30
2018-07-12T10:29:38.951Z,17.87
2018-07-12T10:32:07.346Z,16.13
2018-07-12T10:34:35.688Z,18.80
2018-07-12T10:37:03.833Z,16.67
2018-07-12T10:39:32.168Z,15.40
2018-07-12T10:42:00.587Z,17.53
2018-07-12T10:44:29.003Z,13.70
2018-07-12T10:46:57.324Z,14.93
2018-07-12T10:49:25.665Z,15.37
2018-07-12T10:51:54.454Z,13.90
2018-07-12T10:54:22.836Z,15.40
2018-07-12T10:56:51.200Z,18.03
2018-07-12T10:59:19.542Z,18.87
2018-07-12T11:01:47.899Z,19.57
2018-07-12T11:04:16.362Z,19.67
2018-07-12T11:06:44.710Z,20.80
2018-07-12T11:09:13.133Z,21.40
2018-07-12T11:11:41.489Z,20.37
2018-07-12T11:14:09.865Z,20.30
2018-07-12T11:16:38.227Z,20.17
2018-07-12T11:19:06.325Z,19.37
2018-07-12T11:21:34.677Z,19.50
2018-07-12T11:24:03.040Z,17.63
2018-07-12T11:26:31.391Z,17.00
2018-07-12T11:28:59.748Z,19.70
2018-07-12T11:31:28.150Z,19.77
2018-07-12T11:33:56.530Z,23.23
2018-07-12T11:36:24.984Z,21.40
2018-07-12T11:38:53.328Z,20.90
2018-07-12T11:41:21.426Z,20.13
2018-07-12T11:43:49.780Z,19.53
2018-07-12T11:46:18.151Z,19.63
2018-07-12T11:48:46.338Z,16.90
2018-07-12T11:51:14.670Z,15.53
2018-07-12T11:53:43.031Z,15.80
2018-07-12T11:56:11.411Z,16.03
2018-07-12T11:58:39.743Z,15.10
2018-07-12T12:01:08.133Z,14.70
2018-07-12T12:03:36.489Z,13.43
2018-07-12T12:06:04.876Z,14.20
2018-07-12T12:08:33.201Z,14.17
2018-07-12T12:11:01.526Z,14.50
2018-07-12T12:13:29.899Z,13.60
2018-07-12T12:15:58.265Z,11.97
2018-07-12T12:18:26.605Z,12.70
2018-07-12T12:20:54.953Z,12.97
2018-07-12T12:23:23.026Z,13.20
2018-07-12T12:25:51.405Z,13.40
2018-07-12T12:28:19.772Z,13.87
2018-07-12T12:30:47.892Z,14.43
2018-07-12T12:33:16.395Z,11.90
2018-07-12T12:35:44.762Z,11.60
2018-07-12T12:38:13.193Z,12.10
2018-07-12T12:40:41.534Z,11.13
2018-07-12T12:43:09.911Z,11.23
2018-07-12T12:45:38.288Z,11.30
2018-07-12T12:48:06.692Z,12.13
2018-07-12T12:50:35.069Z,11.60
2018-07-12T12:53:03.436Z,12.17
2018-07-12T12:55:31.848Z,11.43
2018-07-12T12:58:00.203Z,12.63
2018-07-12T13:00:28.611Z,13.60
2018-07-12T13:02:57.013Z,14.50
2018-07-12T13:05:25.377Z,13.87
2018-07-12T13:07:53.757Z,17.20
2018-07-12T13:10:22.121Z,16.77
2018-07-12T13:12:50.217Z,15.40
2018-07-12T13:15:18.648Z,15.20
2018-07-12T13:17:47.017Z,13.53
2018-07-12T13:20:15.413Z,12.03
2018-07-12T13:22:43.831Z,10.23
2018-07-12T13:25:12.246Z,8.87
2018-07-12T13:27:40.678Z,10.10
2018-07-12T13:30:08.999Z,8.47
2018-07-12T13:32:37.370Z,9.03
2018-07-12T13:35:05.723Z,9.60
2018-07-12T13:37:34.119Z,9.60
2018-07-12T13:40:02.470Z,8.90
2018-07-12T13:42:30.792Z,9.30
2018-07-12T13:44:59.150Z,8.53
2018-07-12T13:47:27.491Z,8.17
2018-07-12T13:49:55.800Z,9.27
2018-07-12T13:52:24.136Z,9.10
2018-07-12T13:54:52.519Z,8.43
2018-07-12T13:57:20.873Z,7.50
2018-07-12T13:59:49.218Z,8.00
2018-07-12T14:02:17.581Z,6.37
2018-07-12T14:04:45.926Z,5.40
2018-07-12T14:07:14.255Z,5.47
2018-07-12T14:09:42.626Z,6.07
2018-07-12T14:12:10.988Z,5.50
2018-07-12T14:14:39.342Z,5.93
2018-07-12T14:17:07.421Z,7.07
2018-07-12T14:19:35.773Z,6.77
2018-07-12T14:22:04.488Z,7.63
2018-07-12T14:24:32.830Z,6.63
2018-07-12T14:27:01.295Z,7.60
2018-07-12T14:29:29.682Z,7.47
2018-07-12T14:31:58.097Z,8.17
2018-07-12T14:34:26.461Z,7.73
2018-07-12T14:36:54.892Z,7.10
2018-07-12T14:39:23.451Z,7.27
2018-07-12T14:41:51.873Z,7.97
2018-07-12T14:44:20.230Z,6.60
2018-07-12T14:46:48.617Z,7.33
2018-07-12T14:49:17.037Z,7.00
2018-07-12T14:51:45.415Z,6.80
2018-07-12T14:54:13.788Z,6.70
2018-07-12T14:56:42.140Z,5.67
2018-07-12T14:59:10.516Z,5.83
2018-07-12T15:01:38.966Z,5.90
2018-07-12T15:04:07.464Z,6.30
2018-07-12T15:06:35.922Z,7.00
2018-07-12T15:09:05.270Z,6.67
2018-07-12T15:11:33.618Z,6.10
2018-07-12T15:14:02.054Z,5.80
2018-07-12T15:16:30.643Z,6.37
2018-07-12T15:18:59.113Z,6.80
2018-07-12T15:21:27.550Z,7.10
2018-07-12T15:23:55.907Z,6.57
2018-07-12T15:26:24.380Z,7.20
2018-07-12T15:28:52.648Z,7.10
2018-07-12T15:31:20.709Z,7.17
2018-07-12T15:33:49.235Z,7.33
2018-07-12T15:36:17.688Z,7.00
2018-07-12T15:38:46.082Z,7.07
2018-07-12T15:41:14.582Z,6.20
2018-07-12T15:43:42.968Z,7.43
2018-07-12T15:46:11.332Z,7.20
2018-07-12T15:48:39.709Z,7.30
2018-07-12T15:51:08.032Z,7.30
2018-07-12T15:53:36.414Z,6.90
2018-07-12T15:56:04.864Z,8.00
2018-07-12T15:58:33.241Z,7.00
2018-07-12T16:01:01.627Z,7.43
2018-07-12T16:03:30.122Z,7.50
2018-07-12T16:05:58.472Z,8.00
2018-07-12T16:08:26.901Z,8.00
2018-07-12T16:10:55.313Z,8.10
2018-07-12T16:13:23.684Z,8.80
2018-07-12T16:15:52.079Z,8.90
2018-07-12T16:18:20.442Z,8.13
2018-07-12T16:20:48.837Z,8.53
2018-07-12T16:23:17.218Z,9.10
2018-07-12T16:25:45.588Z,8.30
2018-07-12T16:28:13.974Z,9.27
2018-07-12T16:30:42.319Z,8.97
2018-07-12T16:33:10.814Z,9.80
2018-07-12T16:35:39.207Z,8.47
2018-07-12T16:38:07.599Z,9.43
2018-07-12T16:40:35.956Z,8.80
2018-07-12T16:43:04.349Z,9.50
2018-07-12T16:45:32.773Z,8.53
2018-07-12T16:48:01.310Z,8.60
2018-07-12T16:50:29.697Z,9.33
2018-07-12T16:52:58.096Z,9.40
2018-07-12T16:55:26.459Z,9.00
2018-07-12T16:57:54.855Z,9.40
2018-07-12T17:00:23.286Z,8.83
2018-07-12T17:02:51.718Z,9.40
2018-07-12T17:05:20.094Z,10.00
2018-07-12T17:07:48.561Z,9.07
2018-07-12T17:10:17.007Z,9.10
2018-07-12T17:12:45.391Z,9.40
2018-07-12T17:15:13.760Z,9.60
2018-07-12T17:17:42.118Z,10.03
2018-07-12T17:20:10.178Z,8.50
2018-07-12T17:22:38.565Z,8.93
2018-07-12T17:25:07.028Z,9.83
2018-07-12T17:27:35.344Z,9.60
2018-07-12T17:30:04.091Z,9.77
2018-07-12T17:32:32.506Z,9.13
2018-07-12T17:35:00.997Z,9.93
2018-07-12T17:37:29.400Z,8.63
2018-07-12T17:39:57.784Z,9.10
2018-07-12T17:42:26.259Z,7.90
2018-07-12T17:44:54.662Z,7.30
2018-07-12T17:47:23.061Z,7.80
2018-07-12T17:49:51.417Z,7.90
2018-07-12T17:52:19.820Z,8.03
2018-07-12T17:54:48.225Z,7.97
2018-07-12T17:57:16.806Z,8.07
2018-07-12T17:59:45.274Z,8.30
2018-07-12T18:02:13.381Z,7.13
2018-07-12T18:04:41.789Z,7.53
2018-07-12T18:07:10.217Z,8.37
2018-07-12T18:09:38.697Z,8.00
2018-07-12T18:12:07.062Z,8.03
2018-07-12T18:14:35.504Z,7.30
2018-07-12T18:17:03.862Z,8.07
2018-07-12T18:19:32.280Z,7.57
2018-07-12T18:22:00.674Z,7.90
2018-07-12T18:24:29.055Z,7.90
2018-07-12T18:26:57.438Z,8.70
2018-07-12T18:29:25.840Z,7.67
2018-07-12T18:31:54.415Z,8.00
2018-07-12T18:34:22.814Z,8.10
2018-07-12T18:36:51.275Z,8.43
2018-07-12T18:39:19.782Z,8.13
2018-07-12T18:41:48.201Z,8.63
2018-07-12T18:44:16.768Z,8.00
2018-07-12T18:46:45.146Z,8.83
2018-07-12T18:49:13.803Z,9.17
2018-07-12T18:51:42.196Z,9.30
2018-07-12T18:54:10.644Z,8.17
2018-07-12T18:56:39.084Z,7.70
2018-07-12T18:59:07.534Z,7.63
2018-07-12T19:01:36.346Z,7.80
2018-07-12T19:04:05.498Z,8.43
2018-07-12T19:06:33.938Z,8.40
2018-07-12T19:09:02.403Z,9.07
2018-07-12T19:11:30.576Z,9.50
2018-07-12T19:13:59.025Z,8.67
2018-07-12T19:16:27.488Z,9.90
2018-07-12T19:18:55.858Z,8.60
2018-07-12T19:21:24.248Z,10.50
2018-07-12T19:23:52.692Z,9.53
2018-07-12T19:26:21.355Z,9.47
2018-07-12T19:28:49.977Z,8.90
2018-07-12T19:31:18.459Z,9.07
2018-07-12T19:33:46.881Z,9.50
2018-07-12T19:36:15.295Z,11.30
2018-07-12T19:38:43.768Z,10.37
2018-07-12T19:41:12.128Z,9.30
2018-07-12T19:43:40.491Z,9.20
2018-07-12T19:46:08.878Z,9.73
2018-07-12T19:48:37.328Z,9.67
2018-07-12T19:51:05.727Z,9.77
2018-07-12T19:53:34.124Z,9.97
2018-07-12T19:56:03.770Z,9.70
2018-07-12T19:58:34.158Z,10.60
2018-07-12T20:01:02.546Z,9.20
2018-07-12T20:03:30.985Z,9.70
2018-07-12T20:05:59.408Z,9.83
2018-07-12T20:08:27.739Z,11.27
2018-07-12T20:10:56.100Z,11.23
2018-07-12T20:13:24.516Z,10.77
2018-07-12T20:15:53.035Z,11.67
2018-07-12T20:18:21.409Z,10.93
2018-07-12T20:20:52.484Z,11.20
2018-07-12T20:23:20.906Z,11.30
2018-07-12T20:25:49.282Z,11.03
2018-07-12T20:28:17.675Z,11.77
2018-07-12T20:30:46.217Z,10.90
2018-07-12T20:33:14.546Z,11.80
2018-07-12T20:35:42.888Z,11.47
2018-07-12T20:38:12.160Z,11.10
2018-07-12T20:40:40.546Z,12.40
2018-07-12T20:43:09.006Z,11.40
2018-07-12T20:45:37.383Z,11.40
2018-07-12T20:48:05.768Z,11.60
2018-07-12T20:50:34.138Z,12.40
2018-07-12T20:53:02.529Z,12.00
2018-07-12T20:55:31.026Z,11.40
2018-07-12T20:57:59.563Z,12.53
2018-07-12T21:00:28.011Z,27.77
2018-07-12T21:02:56.445Z,16.33
2018-07-12T21:05:24.860Z,12.03
2018-07-12T21:07:53.279Z,13.07
2018-07-12T21:10:21.350Z,11.53
2018-07-12T21:12:49.711Z,12.23
2018-07-12T21:15:18.101Z,12.90
2018-07-12T21:17:46.458Z,12.97
2018-07-12T21:20:14.862Z,13.00
2018-07-12T21:22:43.271Z,12.77
2018-07-12T21:25:11.639Z,13.70
2018-07-12T21:27:40.026Z,12.50
2018-07-12T21:30:10.107Z,12.70
2018-07-12T21:32:38.545Z,12.33
2018-07-12T21:35:07.287Z,14.20
2018-07-12T21:37:35.640Z,14.30
2018-07-12T21:40:04.104Z,13.50
2018-07-12T21:42:32.503Z,14.33
2018-07-12T21:45:00.880Z,14.23
2018-07-12T21:47:29.252Z,14.27
2018-07-12T21:49:57.620Z,13.87
2018-07-12T21:52:25.990Z,13.60
2018-07-12T21:54:54.376Z,14.43
2018-07-12T21:57:22.811Z,14.40
2018-07-12T21:59:51.148Z,14.20
2018-07-12T22:02:19.503Z,14.07
2018-07-12T22:04:48.407Z,14.00
2018-07-12T22:08:25.607Z,13.93
2018-07-12T22:10:55.247Z,13.03
2018-07-12T22:13:24.130Z,14.23
2018-07-12T22:15:52.509Z,13.80
2018-07-12T22:18:21.099Z,13.57
2018-07-12T22:20:49.442Z,13.37
2018-07-12T22:23:17.941Z,14.40
2018-07-12T22:25:46.316Z,14.70
2018-07-12T22:28:14.696Z,13.73
2018-07-12T22:30:43.217Z,13.77
2018-07-12T22:33:11.552Z,14.73
2018-07-12T22:35:39.932Z,13.70
2018-07-12T22:38:08.270Z,13.77
2018-07-12T22:40:36.675Z,14.53
2018-07-12T22:43:05.017Z,16.43
2018-07-12T22:45:33.374Z,14.80
2018-07-12T22:48:01.863Z,15.33
2018-07-12T22:50:30.162Z,13.73
2018-07-12T22:52:58.564Z,14.50
2018-07-12T22:55:26.887Z,15.20
2018-07-12T22:57:55.248Z,15.33
2018-07-12T23:00:23.650Z,14.07
2018-07-12T23:02:51.985Z,14.10
2018-07-12T23:05:20.361Z,14.80
2018-07-12T23:07:48.757Z,18.00
2018-07-12T23:10:17.175Z,19.40
2018-07-12T23:12:45.584Z,19.27
2018-07-12T23:15:14.822Z,19.27
2018-07-12T23:17:43.172Z,19.10
2018-07-12T23:20:11.498Z,16.90
2018-07-12T23:22:39.587Z,17.60
2018-07-12T23:25:07.950Z,17.90
2018-07-12T23:27:36.346Z,17.60
2018-07-12T23:30:04.653Z,18.63
2018-07-12T23:32:33.000Z,19.33
2018-07-12T23:35:01.342Z,18.60
2018-07-12T23:37:29.693Z,19.50
2018-07-12T23:39:58.076Z,19.90
2018-07-12T23:42:26.439Z,17.87
2018-07-12T23:44:54.764Z,17.93
2018-07-12T23:47:23.147Z,16.17
2018-07-12T23:49:51.521Z,18.23
2018-07-12T23:52:19.875Z,17.47
2018-07-12T23:54:48.246Z,19.40
2018-07-12T23:57:16.683Z,18.23
2018-07-12T23:59:45.067Z,19.17
